Time;durP1;ratioP1;P1;durP2;ratioP2;P2;SDS_P1;SDS_P2;PMS_P1;PMS_P2;Temp;Humidity;BMP_temperature;BMP_pressure;BME280_temperature;BME280_humidity;BME280_pressure;Samples;Min_cycle;Max_cycle;Signal;HPM_P1;HPM_P2
2022/03/24 00:01:54;;;;;;;1.47;1.40;;;6.60;77.30;;;;;;5104481;27;20280;-51
2022/03/24 00:04:38;;;;;;;1.37;1.27;;;6.50;78.00;;;;;;5116589;27;20200;-45
2022/03/24 00:07:23;;;;;;;5.43;1.30;;;6.40;77.90;;;;;;5109001;27;20199;-47
2022/03/24 00:10:09;;;;;;;2.63;1.40;;;6.30;78.50;;;;;;5109618;27;20199;-52
2022/03/24 00:12:57;;;;;;;1.30;1.20;;;6.30;78.70;;;;;;5108292;27;20199;-48
2022/03/24 00:15:41;;;;;;;6.00;1.47;;;6.30;78.70;;;;;;5118502;27;20250;-56
2022/03/24 00:18:29;;;;;;;1.40;1.30;;;6.30;79.00;;;;;;5123688;27;20207;-58
2022/03/24 00:21:16;;;;;;;1.00;1.00;;;6.30;78.90;;;;;;5124065;27;20203;-54
2022/03/24 00:24:01;;;;;;;1.20;1.10;;;6.30;78.80;;;;;;5116415;27;20203;-54
2022/03/24 00:26:47;;;;;;;1.03;0.93;;;6.10;79.40;;;;;;5117895;27;20230;-52
2022/03/24 00:29:31;;;;;;;0.87;0.87;;;6.10;79.40;;;;;;5121467;27;20237;-51
2022/03/24 00:32:15;;;;;;;1.73;1.07;;;6.20;79.80;;;;;;5122563;27;20221;-59
2022/03/24 00:35:01;;;;;;;2.40;1.43;;;6.20;80.20;;;;;;5121328;27;20219;-53
2022/03/24 00:37:46;;;;;;;2.67;2.50;;;6.20;81.70;;;;;;5126940;27;20220;-56
2022/03/24 00:40:30;;;;;;;1.47;1.37;;;6.10;81.40;;;;;;5131706;27;20331;-54
2022/03/24 00:43:15;;;;;;;1.73;1.60;;;6.00;81.50;;;;;;5131134;27;20248;-51
2022/03/24 00:45:59;;;;;;;2.57;1.70;;;6.00;82.10;;;;;;5126649;27;20248;-50
2022/03/24 00:48:43;;;;;;;1.40;1.30;;;6.00;81.30;;;;;;5133921;27;20244;-55
2022/03/24 00:51:28;;;;;;;1.43;1.10;;;5.90;81.50;;;;;;5131685;27;20199;-56
2022/03/24 00:54:13;;;;;;;1.63;1.50;;;5.90;81.50;;;;;;5133794;27;20199;-57
2022/03/24 00:56:57;;;;;;;1.60;1.50;;;5.80;82.50;;;;;;5132105;27;20199;-52
2022/03/24 00:59:43;;;;;;;2.43;1.77;;;5.60;82.40;;;;;;5134828;27;20218;-56
2022/03/24 01:02:28;;;;;;;1.87;1.53;;;5.40;82.90;;;;;;5129865;27;20247;-53
2022/03/24 01:05:13;;;;;;;3.97;2.37;;;5.40;83.80;;;;;;5129364;27;20325;-57
2022/03/24 01:07:57;;;;;;;1.10;1.03;;;5.40;84.20;;;;;;5133480;27;20196;-46
2022/03/24 01:10:43;;;;;;;3.20;2.37;;;5.50;84.90;;;;;;5144100;27;20254;-53
2022/03/24 01:13:28;;;;;;;2.10;1.87;;;5.40;85.90;;;;;;5142851;27;20244;-48
2022/03/24 01:16:13;;;;;;;3.70;1.80;;;5.30;87.20;;;;;;5145600;27;20279;-52
2022/03/24 01:18:58;;;;;;;3.03;1.27;;;5.20;88.20;;;;;;5143691;27;20240;-59
2022/03/24 01:21:44;;;;;;;2.67;1.77;;;5.10;88.70;;;;;;5143685;27;20268;-50
2022/03/24 01:24:28;;;;;;;1.10;1.10;;;5.00;89.00;;;;;;5145557;27;20195;-55
2022/03/24 01:27:15;;;;;;;2.17;1.60;;;5.00;89.50;;;;;;5142509;27;20247;-53
2022/03/24 01:30:00;;;;;;;2.37;1.37;;;5.10;89.30;;;;;;5143949;27;20226;-51
2022/03/24 01:32:45;;;;;;;2.10;1.00;;;5.10;89.10;;;;;;5145195;27;20222;-61
2022/03/24 01:35:31;;;;;;;2.03;1.80;;;5.10;89.40;;;;;;5142057;27;20271;-58
2022/03/24 01:38:16;;;;;;;1.07;1.00;;;5.00;89.50;;;;;;5145447;27;20198;-59
2022/03/24 01:41:00;;;;;;;1.47;1.37;;;5.00;89.60;;;;;;5144096;27;20226;-53
2022/03/24 01:43:45;;;;;;;2.53;1.57;;;5.00;89.30;;;;;;5141989;27;20240;-51
2022/03/24 01:46:30;;;;;;;3.60;2.13;;;5.00;89.40;;;;;;5145213;27;20251;-53
2022/03/24 01:49:14;;;;;;;2.03;1.20;;;4.90;89.10;;;;;;5142988;27;20244;-54
2022/03/24 01:51:59;;;;;;;1.50;1.40;;;5.00;88.90;;;;;;5143734;27;20328;-52
2022/03/24 01:54:48;;;;;;;4.83;1.87;;;5.00;88.90;;;;;;5149213;27;20230;-56
2022/03/24 01:57:33;;;;;;;2.20;1.43;;;4.90;88.80;;;;;;5146578;27;20190;-56
2022/03/24 02:00:19;;;;;;;1.17;1.07;;;5.00;88.70;;;;;;5148670;27;20248;-59
2022/03/24 02:03:05;;;;;;;0.70;0.70;;;5.00;88.70;;;;;;5149866;27;20198;-54
2022/03/24 02:05:49;;;;;;;1.73;1.60;;;5.10;88.60;;;;;;5146381;27;20206;-52
2022/03/24 02:08:35;;;;;;;1.90;1.67;;;5.00;88.70;;;;;;5148357;27;20213;-57
2022/03/24 02:11:20;;;;;;;4.13;1.70;;;5.00;88.60;;;;;;5147558;27;20190;-57
2022/03/24 02:14:06;;;;;;;2.27;1.70;;;5.00;88.90;;;;;;5145324;27;20191;-51
2022/03/24 02:16:50;;;;;;;2.13;1.50;;;4.90;89.20;;;;;;5148968;27;20211;-51
2022/03/24 02:19:36;;;;;;;2.77;1.43;;;4.90;89.80;;;;;;5147576;27;20203;-59
2022/03/24 02:22:20;;;;;;;1.77;1.67;;;4.80;90.00;;;;;;5146395;27;20334;-51
2022/03/24 02:25:07;;;;;;;1.83;1.73;;;4.80;89.90;;;;;;5148111;27;20199;-60
2022/03/24 02:27:52;;;;;;;1.97;1.43;;;4.80;90.00;;;;;;5133964;27;20191;-60
2022/03/24 02:30:36;;;;;;;3.73;2.10;;;4.80;89.90;;;;;;5125325;27;20241;-54
2022/03/24 02:33:24;;;;;;;3.90;1.33;;;4.80;90.20;;;;;;5125669;27;20237;-61
2022/03/24 02:36:09;;;;;;;4.97;1.73;;;4.70;90.60;;;;;;5123157;27;20223;-57
2022/03/24 02:38:53;;;;;;;1.97;1.80;;;4.70;90.50;;;;;;5125498;27;20194;-50
2022/03/24 02:41:49;;;;;;;3.40;1.80;;;4.70;90.80;;;;;;5124990;27;20267;-52
2022/03/24 02:44:34;;;;;;;2.67;1.90;;;4.70;90.90;;;;;;5123862;27;20265;-51
2022/03/24 02:47:19;;;;;;;3.23;1.47;;;4.60;90.90;;;;;;5127074;27;20280;-54
2022/03/24 02:50:05;;;;;;;4.73;1.80;;;4.70;90.90;;;;;;5126320;27;20192;-56
2022/03/24 02:52:49;;;;;;;2.77;1.37;;;4.70;91.00;;;;;;5124931;27;20188;-47
2022/03/24 02:55:33;;;;;;;3.83;1.70;;;4.70;91.30;;;;;;5127775;27;20360;-51
2022/03/24 02:58:18;;;;;;;1.70;1.60;;;4.60;91.00;;;;;;5125179;27;20244;-50
2022/03/24 03:01:02;;;;;;;12.27;1.60;;;4.40;91.30;;;;;;5125185;27;20198;-51
2022/03/24 03:03:47;;;;;;;3.77;2.00;;;4.40;91.40;;;;;;5126531;27;20242;-53
2022/03/24 03:06:35;;;;;;;7.07;1.40;;;4.50;91.30;;;;;;5123872;27;20554;-55
2022/03/24 03:09:19;;;;;;;1.37;1.37;;;4.40;91.70;;;;;;5125376;27;20215;-56
2022/03/24 03:12:04;;;;;;;4.87;1.63;;;4.30;91.80;;;;;;5126273;27;20190;-48
2022/03/24 03:14:49;;;;;;;2.23;2.03;;;4.30;92.00;;;;;;5123325;27;20311;-56
2022/03/24 03:17:34;;;;;;;2.03;1.57;;;4.20;92.10;;;;;;5127257;27;20253;-53
2022/03/24 03:20:18;;;;;;;1.60;1.50;;;4.10;92.20;;;;;;5126120;27;20195;-58
2022/03/24 03:23:03;;;;;;;4.43;1.93;;;4.00;92.60;;;;;;5124185;27;20190;-54
2022/03/24 03:25:48;;;;;;;2.67;1.83;;;3.90;92.80;;;;;;5126810;27;20280;-56
2022/03/24 03:28:33;;;;;;;2.97;1.83;;;3.90;93.00;;;;;;5124808;27;20211;-59
2022/03/24 03:31:20;;;;;;;4.07;1.80;;;3.90;92.90;;;;;;5125123;27;20184;-48
2022/03/24 03:34:07;;;;;;;4.97;2.33;;;3.90;93.10;;;;;;5127152;27;20241;-57
2022/03/24 03:36:54;;;;;;;3.00;1.90;;;3.90;93.30;;;;;;5124064;27;20206;-61
2022/03/24 03:39:38;;;;;;;3.07;1.57;;;3.90;93.30;;;;;;5124852;27;20262;-57
2022/03/24 03:42:23;;;;;;;3.67;2.20;;;3.90;93.40;;;;;;5126150;27;20217;-61
2022/03/24 03:45:08;;;;;;;4.33;1.77;;;3.80;93.50;;;;;;5123384;27;20770;-59
2022/03/24 03:47:53;;;;;;;2.00;1.80;;;3.80;93.60;;;;;;5125985;27;20241;-54
2022/03/24 03:50:42;;;;;;;1.70;1.60;;;3.80;93.50;;;;;;5125037;27;20188;-59
2022/03/24 03:53:27;;;;;;;2.17;1.77;;;3.70;93.80;;;;;;5123029;27;20203;-56
2022/03/24 03:56:12;;;;;;;3.00;1.33;;;3.60;93.90;;;;;;5126163;27;20207;-56
2022/03/24 03:58:56;;;;;;;3.53;2.40;;;3.70;93.80;;;;;;5124792;27;20199;-53
2022/03/24 04:01:40;;;;;;;2.97;1.87;;;3.70;93.80;;;;;;5123561;27;20191;-53
2022/03/24 04:04:24;;;;;;;2.40;1.43;;;3.70;94.00;;;;;;5126419;27;20200;-56
2022/03/24 04:07:09;;;;;;;1.73;1.63;;;3.70;93.90;;;;;;5123604;27;20212;-57
2022/03/24 04:09:54;;;;;;;1.30;1.30;;;3.80;93.90;;;;;;5124505;27;20187;-51
2022/03/24 04:12:38;;;;;;;2.23;1.80;;;3.60;94.00;;;;;;5125827;27;20196;-52
2022/03/24 04:15:22;;;;;;;2.03;1.67;;;3.70;94.20;;;;;;5122584;27;20663;-53
2022/03/24 04:18:07;;;;;;;1.30;1.20;;;3.70;94.10;;;;;;5126024;27;20188;-52
2022/03/24 04:20:51;;;;;;;1.47;1.37;;;3.60;94.00;;;;;;5125253;27;20199;-53
2022/03/24 04:23:41;;;;;;;3.97;2.13;;;3.60;94.10;;;;;;5123869;27;20192;-57
2022/03/24 04:26:25;;;;;;;3.47;2.23;;;3.50;94.10;;;;;;5126091;27;20227;-55
2022/03/24 04:29:10;;;;;;;1.43;1.20;;;3.40;94.20;;;;;;5124792;27;20204;-59
2022/03/24 04:31:55;;;;;;;1.27;1.27;;;3.40;94.40;;;;;;5123974;27;20187;-55
2022/03/24 04:34:39;;;;;;;3.37;1.70;;;3.40;94.60;;;;;;5126223;27;20187;-57
2022/03/24 04:37:25;;;;;;;2.33;2.13;;;3.40;94.70;;;;;;5123360;27;20196;-53
2022/03/24 04:40:11;;;;;;;1.93;1.83;;;3.30;94.80;;;;;;5123613;27;20227;-59
2022/03/24 04:42:56;;;;;;;1.87;1.73;;;3.30;94.90;;;;;;5124411;27;20210;-58
2022/03/24 04:45:40;;;;;;;2.30;1.80;;;3.20;95.20;;;;;;5123437;27;20276;-58
2022/03/24 04:48:25;;;;;;;1.63;1.53;;;3.30;95.20;;;;;;5125041;27;20198;-57
2022/03/24 04:51:09;;;;;;;2.37;2.00;;;3.20;95.30;;;;;;5123463;27;20252;-56
2022/03/24 04:53:54;;;;;;;2.63;2.20;;;3.20;95.30;;;;;;5121543;27;20295;-51
2022/03/24 04:56:38;;;;;;;1.67;1.57;;;3.20;95.30;;;;;;5125219;27;20195;-52
2022/03/24 04:59:22;;;;;;;3.27;1.93;;;3.20;95.40;;;;;;5123460;27;20199;-59
2022/03/24 05:02:08;;;;;;;2.40;2.20;;;3.30;95.40;;;;;;5122533;27;20288;-60
2022/03/24 05:04:54;;;;;;;1.97;1.87;;;3.20;95.90;;;;;;5125700;27;20242;-50
2022/03/24 05:07:40;;;;;;;1.87;1.47;;;3.10;96.30;;;;;;5122042;27;20191;-53
2022/03/24 05:10:24;;;;;;;18.43;8.07;;;3.10;96.60;;;;;;5123044;27;20195;-57
2022/03/24 05:13:08;;;;;;;2.47;2.00;;;3.10;97.50;;;;;;5124444;27;20195;-50
2022/03/24 05:15:56;;;;;;;3.13;1.93;;;3.30;98.90;;;;;;5121542;27;20280;-59
2022/03/24 05:18:40;;;;;;;2.40;2.17;;;3.20;98.80;;;;;;5123713;27;20188;-51
2022/03/24 05:21:24;;;;;;;3.87;2.07;;;3.20;99.00;;;;;;5123488;27;20192;-49
2022/03/24 05:24:09;;;;;;;3.17;2.87;;;3.30;98.70;;;;;;5121273;27;20187;-54
2022/03/24 05:26:53;;;;;;;2.10;1.90;;;3.30;98.70;;;;;;5123718;27;20281;-49
2022/03/24 05:29:38;;;;;;;2.90;1.47;;;3.20;99.30;;;;;;5122772;27;20195;-58
2022/03/24 05:32:22;;;;;;;1.77;1.27;;;3.00;98.50;;;;;;5122117;27;20218;-57
2022/03/24 05:35:07;;;;;;;1.50;1.40;;;3.00;98.70;;;;;;5125571;27;20199;-52
2022/03/24 05:37:51;;;;;;;10.13;2.67;;;3.10;98.80;;;;;;5123121;27;20203;-59
2022/03/24 05:40:36;;;;;;;8.83;1.60;;;3.00;98.50;;;;;;5122565;27;20227;-51
2022/03/24 05:43:20;;;;;;;3.87;2.97;;;3.00;98.60;;;;;;5123423;28;20187;-59
2022/03/24 05:46:04;;;;;;;1.87;1.67;;;3.10;98.20;;;;;;5120486;28;20222;-55
2022/03/24 05:48:48;;;;;;;1.77;1.60;;;3.00;98.50;;;;;;5123725;28;20284;-51
2022/03/24 05:51:33;;;;;;;2.13;1.67;;;3.10;98.60;;;;;;5123704;28;20199;-55
2022/03/24 05:54:18;;;;;;;4.23;1.50;;;3.00;98.90;;;;;;5120788;28;20256;-51
2022/03/24 05:57:03;;;;;;;4.33;2.23;;;3.00;99.00;;;;;;5124614;28;20308;-56
2022/03/24 05:59:48;;;;;;;1.60;1.47;;;3.10;98.90;;;;;;5122821;28;20260;-58
2022/03/24 06:02:32;;;;;;;5.83;2.20;;;3.10;98.80;;;;;;5121598;28;20216;-54
2022/03/24 06:05:18;;;;;;;3.07;2.03;;;3.30;98.60;;;;;;5124561;28;20223;-52
2022/03/24 06:08:03;;;;;;;1.90;1.80;;;3.20;98.60;;;;;;5121564;28;20191;-59
2022/03/24 06:10:48;;;;;;;2.67;2.40;;;3.40;98.40;;;;;;5122504;28;20199;-55
2022/03/24 06:13:34;;;;;;;3.73;2.13;;;3.30;98.40;;;;;;5124022;28;20241;-60
2022/03/24 06:16:19;;;;;;;3.70;2.60;;;3.40;98.20;;;;;;5121525;28;20252;-50
2022/03/24 06:19:03;;;;;;;3.10;2.13;;;3.40;98.30;;;;;;5124076;28;20226;-59
2022/03/24 06:21:48;;;;;;;2.93;2.27;;;3.50;98.40;;;;;;5129448;27;20198;-46
2022/03/24 06:24:33;;;;;;;3.00;1.90;;;3.50;98.70;;;;;;5128115;27;20248;-51
2022/03/24 06:27:17;;;;;;;3.13;2.47;;;3.60;98.50;;;;;;5134544;27;20231;-59
2022/03/24 06:30:05;;;;;;;2.13;2.00;;;3.70;98.30;;;;;;5123318;27;20195;-57
2022/03/24 06:32:50;;;;;;;8.00;2.07;;;3.80;97.80;;;;;;5118294;28;20604;-53
2022/03/24 06:35:34;;;;;;;2.37;2.17;;;3.90;97.60;;;;;;5124145;28;20191;-53
2022/03/24 06:38:20;;;;;;;4.30;1.70;;;3.70;97.80;;;;;;5120778;27;20198;-51
2022/03/24 06:41:05;;;;;;;3.23;2.30;;;3.70;97.80;;;;;;5134046;27;20230;-46
2022/03/24 06:43:50;;;;;;;2.30;1.77;;;3.60;98.00;;;;;;5139087;27;20226;-47
2022/03/24 06:46:35;;;;;;;4.00;2.70;;;3.60;98.40;;;;;;5132168;27;20691;-47
2022/03/24 06:49:20;;;;;;;3.90;2.87;;;3.70;98.20;;;;;;5131379;27;20617;-45
2022/03/24 06:52:05;;;;;;;2.77;2.20;;;3.70;98.20;;;;;;5134912;27;20225;-58
2022/03/24 06:54:49;;;;;;;2.93;2.13;;;3.90;97.90;;;;;;5133795;27;20199;-57
2022/03/24 06:57:33;;;;;;;2.47;2.27;;;4.10;97.70;;;;;;5134961;27;20676;-58
2022/03/24 07:00:18;;;;;;;2.30;2.13;;;4.20;97.40;;;;;;5133105;27;20179;-56
2022/03/24 07:03:02;;;;;;;4.77;2.57;;;4.40;97.20;;;;;;5135498;27;20199;-49
2022/03/24 07:05:54;;;;;;;2.73;2.07;;;4.50;97.10;;;;;;5141252;27;20256;-57
2022/03/24 07:08:39;;;;;;;4.27;2.80;;;4.50;97.10;;;;;;5134135;27;20223;-51
2022/03/24 07:11:24;;;;;;;3.63;2.27;;;4.60;97.00;;;;;;5120531;27;20289;-55
2022/03/24 07:14:08;;;;;;;2.67;1.97;;;4.60;97.10;;;;;;5130379;27;20191;-47
2022/03/24 07:16:53;;;;;;;2.47;2.10;;;4.60;97.00;;;;;;5131742;27;20287;-56
2022/03/24 07:19:37;;;;;;;3.37;2.20;;;4.70;97.00;;;;;;5133272;27;20315;-49
2022/03/24 07:22:22;;;;;;;4.53;2.13;;;4.80;96.80;;;;;;5132845;27;20299;-55
2022/03/24 07:25:07;;;;;;;5.47;2.27;;;4.70;96.60;;;;;;5133973;27;20231;-49
2022/03/24 07:27:52;;;;;;;3.10;2.73;;;4.80;96.50;;;;;;5135610;27;20198;-48
2022/03/24 07:30:37;;;;;;;2.60;1.87;;;4.90;96.30;;;;;;5140059;27;20191;-52
2022/03/24 07:33:21;;;;;;;2.57;2.00;;;5.00;96.00;;;;;;5147027;27;20190;-48
2022/03/24 07:36:07;;;;;;;2.10;1.93;;;5.10;95.90;;;;;;5130367;27;20236;-54
2022/03/24 07:38:55;;;;;;;3.43;2.73;;;5.30;95.50;;;;;;5124218;27;20240;-56
2022/03/24 07:45:25;;;;;;;2.53;2.17;;;5.60;94.90;;;;;;5124396;27;20274;-59
2022/03/24 07:48:16;;;;;;;2.47;1.80;;;5.80;94.30;;;;;;5121634;27;20195;-59
2022/03/24 07:51:01;;;;;;;3.13;2.03;;;5.90;93.90;;;;;;5103313;28;20203;-58
2022/03/24 07:53:49;;;;;;;2.83;2.50;;;6.00;93.80;;;;;;5106425;28;20241;-58
2022/03/24 07:56:35;;;;;;;1.80;1.70;;;6.20;93.40;;;;;;5111104;27;20268;-56
2022/03/24 07:59:21;;;;;;;2.47;1.67;;;6.30;92.60;;;;;;5123134;27;20192;-59
2022/03/24 08:02:07;;;;;;;2.93;1.60;;;6.40;92.10;;;;;;5126983;27;20215;-48
2022/03/24 08:04:54;;;;;;;1.43;1.33;;;6.50;91.60;;;;;;5125706;27;20199;-51
2022/03/24 08:07:39;;;;;;;2.63;2.00;;;6.60;91.60;;;;;;5123386;27;20277;-60
2022/03/24 08:10:24;;;;;;;2.73;1.77;;;6.80;91.40;;;;;;5155111;27;20196;-51
2022/03/24 08:13:11;;;;;;;3.90;2.07;;;6.90;91.10;;;;;;5123906;27;20247;-55
2022/03/24 08:15:56;;;;;;;2.17;1.80;;;7.30;90.70;;;;;;5124785;27;20267;-55
2022/03/24 08:18:41;;;;;;;1.90;1.80;;;7.70;90.00;;;;;;5112691;27;20257;-60
2022/03/24 08:21:25;;;;;;;3.47;2.07;;;7.90;88.40;;;;;;5102609;28;20458;-60
2022/03/24 08:24:10;;;;;;;2.20;1.90;;;8.40;88.40;;;;;;5105639;28;20191;-47
2022/03/24 08:26:54;;;;;;;4.57;2.33;;;8.70;85.80;;;;;;5117073;27;20262;-56
2022/03/24 08:29:40;;;;;;;4.37;2.87;;;9.10;84.40;;;;;;5119645;27;20225;-58
2022/03/24 08:32:24;;;;;;;3.73;3.00;;;9.50;82.90;;;;;;5125952;27;20194;-59
2022/03/24 08:35:09;;;;;;;4.63;2.13;;;9.80;82.10;;;;;;5124208;27;20234;-58
2022/03/24 08:37:55;;;;;;;5.03;2.63;;;10.20;80.60;;;;;;5117407;27;20192;-54
2022/03/24 08:40:40;;;;;;;4.53;2.83;;;10.40;80.40;;;;;;5105276;28;20220;-57
2022/03/24 08:43:24;;;;;;;3.87;2.90;;;10.80;78.90;;;;;;5102446;28;20215;-53
2022/03/24 08:46:09;;;;;;;4.67;3.20;;;11.20;77.90;;;;;;5119204;27;20227;-58
2022/03/24 08:48:54;;;;;;;4.33;2.93;;;11.40;76.60;;;;;;5111064;27;20219;-53
2022/03/24 08:51:40;;;;;;;4.33;2.57;;;11.90;75.20;;;;;;5102839;28;20230;-57
2022/03/24 08:54:24;;;;;;;5.93;2.53;;;11.50;74.50;;;;;;5112696;27;20270;-53
2022/03/24 08:57:09;;;;;;;3.57;2.80;;;12.00;73.20;;;;;;5123461;27;20260;-54
2022/03/24 08:59:55;;;;;;;4.73;2.80;;;11.50;72.50;;;;;;5121460;27;20208;-58
2022/03/24 09:02:44;;;;;;;2.70;2.50;;;11.50;73.80;;;;;;5125172;27;20204;-56
2022/03/24 09:05:29;;;;;;;3.30;2.63;;;11.70;72.50;;;;;;5123850;27;20273;-57
2022/03/24 09:08:14;;;;;;;3.83;2.73;;;11.70;72.20;;;;;;5119413;27;20196;-58
2022/03/24 09:10:58;;;;;;;3.43;2.63;;;11.70;72.10;;;;;;5103312;28;20192;-49
2022/03/24 09:13:42;;;;;;;4.83;2.47;;;12.10;71.40;;;;;;5100941;28;20204;-59
2022/03/24 09:16:27;;;;;;;4.03;2.80;;;13.10;70.40;;;;;;5102494;28;20201;-57
2022/03/24 09:19:12;;;;;;;6.50;3.30;;;13.70;67.50;;;;;;5104288;28;20258;-59
2022/03/24 09:21:56;;;;;;;5.80;3.07;;;13.90;65.50;;;;;;5101924;28;20275;-60
2022/03/24 09:24:41;;;;;;;3.77;3.10;;;14.30;66.00;;;;;;5104190;28;20197;-56
2022/03/24 09:27:25;;;;;;;4.13;3.23;;;14.30;64.20;;;;;;5104121;28;20290;-53
2022/03/24 09:30:14;;;;;;;4.80;3.30;;;14.80;64.90;;;;;;5102213;28;20241;-49
2022/03/24 09:32:59;;;;;;;9.57;3.90;;;15.20;63.90;;;;;;5104865;28;20196;-56
2022/03/24 09:35:43;;;;;;;4.67;3.63;;;15.20;61.80;;;;;;5103297;28;20188;-56
2022/03/24 09:38:27;;;;;;;3.97;3.33;;;15.90;60.40;;;;;;5102341;28;20267;-48
2022/03/24 09:41:13;;;;;;;4.90;3.70;;;16.20;59.70;;;;;;5104283;28;20270;-58
2022/03/24 09:43:58;;;;;;;6.40;3.80;;;16.50;58.50;;;;;;5101801;28;20192;-60
2022/03/24 09:46:43;;;;;;;4.63;3.55;;;16.30;58.10;;;;;;5102848;28;20309;-57
2022/03/24 09:49:27;;;;;;;6.03;3.83;;;16.90;57.10;;;;;;5103987;28;20285;-51
2022/03/24 09:52:12;;;;;;;4.18;3.45;;;17.30;56.20;;;;;;5101761;28;20245;-57
2022/03/24 09:54:56;;;;;;;5.90;3.95;;;18.60;54.90;;;;;;5104433;28;20192;-52
2022/03/24 09:57:43;;;;;;;7.03;3.95;;;18.90;52.90;;;;;;5103304;28;20206;-54
2022/03/24 10:00:27;;;;;;;4.75;3.88;;;19.40;51.50;;;;;;5101833;28;20199;-51
2022/03/24 10:03:21;;;;;;;7.57;3.78;;;20.90;49.50;;;;;;5104243;28;20242;-49
2022/03/24 10:06:07;;;;;;;8.50;4.47;;;19.70;50.00;;;;;;5104128;28;20200;-51
2022/03/24 10:08:51;;;;;;;6.60;4.10;;;20.70;48.60;;;;;;5102089;28;20207;-51
2022/03/24 10:11:36;;;;;;;7.72;4.20;;;19.80;48.80;;;;;;5105423;28;20645;-58
2022/03/24 10:14:22;;;;;;;4.90;4.00;;;20.60;48.70;;;;;;5105488;28;20184;-56
2022/03/24 10:17:11;;;;;;;3.47;3.17;;;21.30;46.30;;;;;;5106067;28;20262;-45
2022/03/24 10:20:05;;;;;;;5.40;4.03;;;22.40;44.60;;;;;;5108314;28;20215;-60
2022/03/24 10:23:05;;;;;;;3.83;3.40;;;22.70;43.70;;;;;;5120262;27;20196;-53
2022/03/24 10:25:52;;;;;;;3.78;3.30;;;22.30;43.30;;;;;;5106395;28;20258;-56
2022/03/24 10:28:36;;;;;;;5.13;3.42;;;22.10;43.20;;;;;;5107817;28;20246;-60
2022/03/24 10:31:33;;;;;;;4.78;3.45;;;22.80;42.50;;;;;;5105924;28;20200;-53
2022/03/24 10:34:27;;;;;;;5.15;3.90;;;23.80;41.80;;;;;;5106581;28;20206;-53
2022/03/24 10:37:19;;;;;;;4.50;3.88;;;23.60;41.00;;;;;;5108087;28;20235;-47
2022/03/24 10:40:06;;;;;;;5.13;4.63;;;23.50;40.80;;;;;;5105170;28;20269;-48
2022/03/24 10:42:55;;;;;;;6.15;4.85;;;23.30;40.60;;;;;;5121028;27;20220;-48
2022/03/24 10:45:39;;;;;;;4.10;3.70;;;23.90;40.00;;;;;;5107938;28;20250;-55
2022/03/24 10:48:23;;;;;;;3.72;3.42;;;26.70;37.10;;;;;;5105420;28;20192;-50
2022/03/24 10:51:07;;;;;;;5.20;3.67;;;26.10;36.70;;;;;;5107259;28;20192;-54
2022/03/24 10:54:02;;;;;;;4.07;3.78;;;25.20;36.60;;;;;;5106674;28;20196;-46
2022/03/24 10:57:04;;;;;;;3.90;3.60;;;24.90;37.40;;;;;;5119236;27;20276;-53
2022/03/24 10:59:58;;;;;;;5.82;4.55;;;25.90;37.50;;;;;;5107649;28;20187;-51
2022/03/24 11:02:44;;;;;;;4.70;4.30;;;26.30;36.50;;;;;;5107330;28;20200;-53
2022/03/24 11:05:29;;;;;;;4.40;4.00;;;26.10;35.90;;;;;;5105177;28;20261;-51
2022/03/24 11:08:18;;;;;;;8.60;4.75;;;26.50;35.90;;;;;;5107541;28;20192;-50
2022/03/24 11:11:07;;;;;;;6.75;5.72;;;26.10;35.90;;;;;;5106375;28;20200;-56
2022/03/24 11:13:55;;;;;;;5.75;4.97;;;26.40;35.90;;;;;;5105094;28;20242;-58
2022/03/24 11:16:40;;;;;;;5.60;5.07;;;26.90;35.00;;;;;;5107546;28;20239;-59
2022/03/24 11:19:24;;;;;;;3.65;3.40;;;27.30;35.30;;;;;;5105706;28;20188;-49
2022/03/24 11:22:12;;;;;;;3.95;3.60;;;29.30;33.70;;;;;;5105829;28;20192;-58
2022/03/24 11:24:57;;;;;;;4.38;3.97;;;27.30;34.30;;;;;;5107770;28;20238;-60
2022/03/24 11:27:42;;;;;;;3.75;3.45;;;27.40;34.70;;;;;;5105824;28;20195;-58
2022/03/24 11:30:27;;;;;;;4.13;3.72;;;28.20;34.10;;;;;;5105485;28;20262;-51
2022/03/24 11:33:13;;;;;;;5.15;3.50;;;28.10;34.50;;;;;;5106861;28;20266;-60
2022/03/24 11:35:57;;;;;;;4.78;4.38;;;28.10;34.50;;;;;;5104465;28;20232;-51
2022/03/24 11:38:42;;;;;;;4.35;3.95;;;29.00;34.30;;;;;;5106659;28;20257;-54
2022/03/24 11:41:42;;;;;;;5.40;3.60;;;29.10;34.10;;;;;;5106180;28;20243;-61
2022/03/24 11:44:53;;;;;;;5.25;4.30;;;29.20;34.10;;;;;;5104613;28;20250;-58
2022/03/24 11:47:52;;;;;;;5.05;4.55;;;28.80;34.40;;;;;;5104810;28;20195;-57
2022/03/24 11:50:50;;;;;;;4.22;3.83;;;28.20;35.30;;;;;;5106798;28;20200;-55
2022/03/24 11:53:37;;;;;;;4.53;4.15;;;28.70;33.80;;;;;;5103903;28;20230;-59
2022/03/24 11:56:21;;;;;;;4.28;3.85;;;31.00;32.70;;;;;;5105065;28;20251;-49
2022/03/24 11:59:08;;;;;;;8.27;5.95;;;28.90;32.90;;;;;;5106565;28;20194;-56
2022/03/24 12:02:15;;;;;;;3.30;3.00;;;28.70;32.70;;;;;;5104119;28;20192;-57
2022/03/24 12:05:00;;;;;;;3.47;3.17;;;30.20;31.80;;;;;;5123124;27;20244;-57
2022/03/24 12:07:44;;;;;;;3.50;3.20;;;30.50;31.30;;;;;;5120019;27;20186;-47
2022/03/24 12:10:32;;;;;;;4.15;3.80;;;31.00;30.80;;;;;;5122544;27;20281;-53
2022/03/24 12:13:16;;;;;;;3.10;2.85;;;28.90;31.10;;;;;;5123131;27;20188;-47
2022/03/24 12:16:14;;;;;;;4.07;3.70;;;29.60;31.20;;;;;;5124664;27;20216;-53
2022/03/24 12:18:58;;;;;;;3.65;3.35;;;28.10;32.10;;;;;;5123106;27;20214;-58
2022/03/24 12:21:43;;;;;;;3.30;3.00;;;27.20;32.20;;;;;;5124912;27;20195;-48
2022/03/24 12:24:37;;;;;;;3.00;2.80;;;27.40;31.10;;;;;;5124150;27;20244;-52
2022/03/24 12:27:22;;;;;;;3.67;3.08;;;27.40;31.00;;;;;;5119168;27;20256;-53
2022/03/24 12:30:15;;;;;;;2.75;2.55;;;28.00;31.90;;;;;;5135572;27;20221;-52
2022/03/24 12:33:08;;;;;;;3.22;3.03;;;29.50;30.70;;;;;;5123161;27;20251;-55
2022/03/24 12:35:55;;;;;;;3.33;3.13;;;29.60;30.50;;;;;;5130026;27;20234;-49
2022/03/24 12:38:46;;;;;;;4.18;3.83;;;28.60;30.10;;;;;;5131800;27;20183;-54
2022/03/24 12:41:31;;;;;;;4.13;3.20;;;26.20;32.50;;;;;;5131085;27;20241;-49
2022/03/24 12:44:16;;;;;;;4.10;2.92;;;24.90;33.10;;;;;;5130953;27;20195;-52
2022/03/24 12:47:00;;;;;;;3.03;2.70;;;23.80;34.80;;;;;;5134526;27;20259;-50
2022/03/24 12:49:45;;;;;;;2.70;2.50;;;23.00;34.40;;;;;;5133547;27;20473;-57
2022/03/24 12:52:49;;;;;;;3.28;3.08;;;22.80;35.80;;;;;;5132407;27;20252;-49
2022/03/24 12:55:42;;;;;;;4.22;3.83;;;21.70;35.50;;;;;;5147248;27;20245;-51
2022/03/24 12:58:27;;;;;;;3.30;2.95;;;21.30;36.20;;;;;;5128167;27;20214;-50
2022/03/24 13:01:11;;;;;;;2.80;2.60;;;21.30;35.20;;;;;;5123066;27;20276;-57
2022/03/24 13:04:01;;;;;;;5.85;2.45;;;21.80;35.00;;;;;;5126285;27;20191;-59
2022/03/24 13:06:46;;;;;;;4.10;3.20;;;21.50;36.20;;;;;;5118534;27;20191;-57
2022/03/24 13:09:31;;;;;;;3.85;3.17;;;24.10;35.60;;;;;;5122109;27;20938;-57
2022/03/24 13:12:15;;;;;;;3.22;2.90;;;26.90;32.40;;;;;;5119891;27;20210;-57
2022/03/24 13:15:01;;;;;;;3.00;2.80;;;28.20;32.10;;;;;;5121340;27;20184;-55
2022/03/24 13:17:53;;;;;;;2.85;2.65;;;29.70;31.30;;;;;;5121892;27;20237;-52
2022/03/24 13:20:41;;;;;;;3.30;3.00;;;31.80;29.80;;;;;;5121758;27;20200;-54
2022/03/24 13:23:28;;;;;;;3.45;3.17;;;32.90;29.10;;;;;;5117289;27;20237;-56
2022/03/24 13:26:13;;;;;;;3.10;2.90;;;32.20;28.80;;;;;;5120711;27;20190;-54
2022/03/24 13:28:57;;;;;;;3.42;3.13;;;30.90;29.00;;;;;;5143359;27;20252;-57
2022/03/24 13:31:41;;;;;;;3.47;3.17;;;27.90;30.30;;;;;;5122878;27;20241;-52
2022/03/24 13:34:26;;;;;;;3.15;2.95;;;25.50;32.50;;;;;;5119940;27;20200;-55
2022/03/24 13:37:16;;;;;;;4.70;3.75;;;24.40;33.70;;;;;;5150639;27;20252;-53
2022/03/24 13:40:02;;;;;;;3.50;3.20;;;24.70;32.80;;;;;;5120309;27;20264;-51
2022/03/24 13:42:49;;;;;;;2.70;2.50;;;26.20;31.40;;;;;;5123749;27;20184;-55
2022/03/24 13:45:34;;;;;;;2.47;2.17;;;27.70;29.00;;;;;;5118160;28;20241;-53
2022/03/24 13:48:23;;;;;;;2.90;2.70;;;28.70;28.90;;;;;;5123027;27;20191;-50
2022/03/24 13:51:10;;;;;;;3.22;2.92;;;31.00;28.50;;;;;;5126081;27;20237;-51
2022/03/24 13:57:58;;;;;;;3.13;2.88;;;29.80;27.90;;;;;;5126085;27;20230;-55
2022/03/24 14:00:45;;;;;;;4.60;3.67;;;28.70;28.70;;;;;;5129618;27;20241;-56
2022/03/24 14:03:29;;;;;;;2.85;2.65;;;30.40;28.70;;;;;;5118542;27;20198;-56
2022/03/24 14:06:15;;;;;;;2.78;2.67;;;32.00;28.50;;;;;;5120590;27;20191;-51
2022/03/24 14:09:00;;;;;;;3.55;3.25;;;32.70;27.20;;;;;;5127027;27;20252;-60
2022/03/24 14:11:44;;;;;;;2.95;2.75;;;31.80;27.50;;;;;;5156771;27;20180;-54
2022/03/24 14:14:28;;;;;;;3.33;3.03;;;31.60;28.20;;;;;;5156654;27;20195;-54
2022/03/24 14:17:12;;;;;;;3.50;2.97;;;32.90;28.00;;;;;;5158527;27;20233;-55
2022/03/24 14:19:57;;;;;;;3.25;2.95;;;33.60;27.70;;;;;;5124757;27;20320;-56
2022/03/24 14:22:46;;;;;;;3.05;2.85;;;33.50;27.20;;;;;;5157296;27;20336;-55
2022/03/24 14:25:30;;;;;;;3.30;3.10;;;34.30;27.40;;;;;;5129478;27;20182;-52
2022/03/24 14:28:31;;;;;;;3.05;2.83;;;34.60;27.70;;;;;;5127416;27;20186;-55
2022/03/24 14:31:16;;;;;;;3.28;2.97;;;34.50;27.30;;;;;;5129831;27;20198;-54
2022/03/24 14:34:02;;;;;;;3.20;3.00;;;33.80;27.10;;;;;;5126973;27;20191;-48
2022/03/24 14:36:47;;;;;;;3.60;3.30;;;33.90;27.30;;;;;;5126997;27;20222;-53
2022/03/24 14:39:31;;;;;;;4.05;3.58;;;34.60;26.80;;;;;;5158570;27;20385;-56